Epsilon — SV4166 — position and weather

sailwx.info

Track history (hours):
 
Tides and Currents Weather Stations Pressure Air Temp Water Temp Dewpoint Dewpoint Depression Visibility Wind Speed Wind Dir Waves Ship Positions

Epsilon

Last reported at 2017-Sep-19 20:30 UTC. Time now 2017-Sep-19 20:28 UTC.
Position N 40°57' E 024°33'.

Length 33 m; draft 2.5 m.

Type: Cargo ship. MMSI: 237019200.

Date/timePositionNaut miles runAvg speedWind from/ knotsBaromVisibWave heightAir tempDewpointWater temp
2017-Sep-19 20:30N 40°57' E 024°33'0 0.0
2017-Sep-19 20:00N 40°57' E 024°33'0 0.0
2017-Sep-19 19:30N 40°57' E 024°33'0 0.0
2017-Sep-19 19:00N 40°57' E 024°33'0 0.0
2017-Sep-19 18:30N 40°57' E 024°33'0 0.0
2017-Sep-19 18:00N 40°57' E 024°33'0 0.0
2017-Sep-19 17:30N 40°57' E 024°33'0 0.0
2017-Sep-19 17:00N 40°57' E 024°33'0 0.0
2017-Sep-19 16:30N 40°57' E 024°33'0 0.0
2017-Sep-19 16:00N 40°57' E 024°33'0 0.0
2017-Sep-19 15:30N 40°57' E 024°33'0 0.0
2017-Sep-19 15:00N 40°57' E 024°33'0 0.0
2017-Sep-19 14:30N 40°57' E 024°33'0 0.0
2017-Sep-19 14:00N 40°57' E 024°33'0 0.6
2017-Sep-19 13:30N 40°57' E 024°33'4 7.4
2017-Sep-19 13:00N 40°53' E 024°32'4 8.0
2017-Sep-19 12:30N 40°49' E 024°31'2 3.2
2017-Sep-19 12:00N 40°48' E 024°30'0 0.0
2017-Sep-19 11:30N 40°48' E 024°30'0 0.0
2017-Sep-19 11:00N 40°48' E 024°30'0 0.0
2017-Sep-19 10:30N 40°48' E 024°30'0 0.0
2017-Sep-19 10:00N 40°48' E 024°30'0 0.2
2017-Sep-19 09:30N 40°48' E 024°30'3 5.1
2017-Sep-19 09:00N 40°50' E 024°30'4 8.1
2017-Sep-19 08:30N 40°54' E 024°31'3 5.9
2017-Sep-19 08:00N 40°57' E 024°33'0 0.0
2017-Sep-19 07:30N 40°57' E 024°33'0 0.0
2017-Sep-19 07:00N 40°57' E 024°33'0 0.0
2017-Sep-19 06:30N 40°57' E 024°33'0 0.0
2017-Sep-19 06:00N 40°57' E 024°33'0 0.0
2017-Sep-19 05:30N 40°57' E 024°33'0 0.0
2017-Sep-19 05:00N 40°57' E 024°33'0 0.0
2017-Sep-19 04:30N 40°57' E 024°33'0 0.0
2017-Sep-19 04:00N 40°57' E 024°33'0 0.0
2017-Sep-19 03:30N 40°57' E 024°33'0 0.0
2017-Sep-19 03:00N 40°57' E 024°33'0 0.0
2017-Sep-19 02:30N 40°57' E 024°33'0 0.0
2017-Sep-19 02:00N 40°57' E 024°33'0 0.0
2017-Sep-19 01:30N 40°57' E 024°33'0 0.0
2017-Sep-19 01:00N 40°57' E 024°33'0 0.0
2017-Sep-19 00:30N 40°57' E 024°33'0 0.0
2017-Sep-19 00:00N 40°57' E 024°33'0 0.0
2017-Sep-18 23:30N 40°57' E 024°33'0 0.0
2017-Sep-18 23:00N 40°57' E 024°33'0 0.0
2017-Sep-18 22:30N 40°57' E 024°33'0 0.0
2017-Sep-18 22:00N 40°57' E 024°33'0 0.0
2017-Sep-18 21:30N 40°57' E 024°33'0 0.0
2017-Sep-18 21:00N 40°57' E 024°33'0 0.0
2017-Sep-18 20:30N 40°57' E 024°33'0 0.0
2017-Sep-18 20:00N 40°57' E 024°33'0 0.0
2017-Sep-18 19:30N 40°57' E 024°33'0 0.0
2017-Sep-18 19:00N 40°57' E 024°33'0 0.0
2017-Sep-18 18:30N 40°57' E 024°33'0 0.0
2017-Sep-18 18:00N 40°57' E 024°33'0 0.0
2017-Sep-18 17:30N 40°57' E 024°33'0 0.0
2017-Sep-18 17:00N 40°57' E 024°33'0 0.0
2017-Sep-18 16:30N 40°57' E 024°33'0 0.0
2017-Sep-18 16:00N 40°57' E 024°33'0 0.0
2017-Sep-18 15:30N 40°57' E 024°33'0 0.0
2017-Sep-18 15:00N 40°57' E 024°33'0 0.0
2017-Sep-18 14:30N 40°57' E 024°33'0 0.1
2017-Sep-18 14:00N 40°57' E 024°33'4 7.6
2017-Sep-18 13:30N 40°53' E 024°32'4 8.1
2017-Sep-18 13:00N 40°49' E 024°31'2 3.4
2017-Sep-18 12:30N 40°48' E 024°30'0 0.0
2017-Sep-18 12:00N 40°48' E 024°30'0 0.0
2017-Sep-18 11:30N 40°48' E 024°30'0 0.0
2017-Sep-18 11:00N 40°48' E 024°30'0 0.2
2017-Sep-18 10:30N 40°48' E 024°30'0 0.0
2017-Sep-18 10:00N 40°48' E 024°30'0 0.0
2017-Sep-18 09:30N 40°48' E 024°30'0 0.0
2017-Sep-18 09:00N 40°48' E 024°30'2 4.4
2017-Sep-18 08:30N 40°50' E 024°31'4 8.4
2017-Sep-18 08:00N 40°54' E 024°32'3 6.5
2017-Sep-18 07:30N 40°57' E 024°33'0 0.0
2017-Sep-18 07:00N 40°57' E 024°33'0 0.0
2017-Sep-18 06:30N 40°57' E 024°33'0 0.0
2017-Sep-18 06:00N 40°57' E 024°33'0 0.0
2017-Sep-18 05:30N 40°57' E 024°33'0 0.0
2017-Sep-18 05:00N 40°57' E 024°33'0 0.0
2017-Sep-18 04:30N 40°57' E 024°33'0 0.0
2017-Sep-18 04:00N 40°57' E 024°33'0 0.0
2017-Sep-18 03:30N 40°57' E 024°33'0 0.0
2017-Sep-18 03:00N 40°57' E 024°33'0 0.0
2017-Sep-18 02:30N 40°57' E 024°33'0 0.0
2017-Sep-18 02:00N 40°57' E 024°33'0 0.0
2017-Sep-18 01:30N 40°57' E 024°33'0 0.0
2017-Sep-18 01:00N 40°57' E 024°33'0 0.0
2017-Sep-18 00:30N 40°57' E 024°33'0 0.0
2017-Sep-18 00:00N 40°57' E 024°33'0 0.0
2017-Sep-17 23:30N 40°57' E 024°33'0 0.0
2017-Sep-17 23:00N 40°57' E 024°33'0 0.0
2017-Sep-17 22:30N 40°57' E 024°33'0 0.0
2017-Sep-17 22:00N 40°57' E 024°33'0 0.0
2017-Sep-17 21:30N 40°57' E 024°33'0 0.0
2017-Sep-17 21:00N 40°57' E 024°33'0 0.0
2017-Sep-17 20:30N 40°57' E 024°33'0 0.0
2017-Sep-17 20:00N 40°57' E 024°33'0 0.0
2017-Sep-17 19:30N 40°57' E 024°33'0 0.0
2017-Sep-17 19:00N 40°57' E 024°33'0 0.0
2017-Sep-17 18:30N 40°57' E 024°33'0 0.0
2017-Sep-17 18:00N 40°57' E 024°33'0 0.0
2017-Sep-17 17:30N 40°57' E 024°33'0 0.0
2017-Sep-17 17:00N 40°57' E 024°33'0 0.0
2017-Sep-17 16:30N 40°57' E 024°33'0 0.0
2017-Sep-17 16:00N 40°57' E 024°33'0 0.0
2017-Sep-17 15:30N 40°57' E 024°33'0 0.0
2017-Sep-17 15:00N 40°57' E 024°33'0 0.0
2017-Sep-17 14:30N 40°57' E 024°33'0 0.0
2017-Sep-17 14:00N 40°57' E 024°33'0 0.0
2017-Sep-17 13:30N 40°57' E 024°33'0 0.0
2017-Sep-17 13:00N 40°57' E 024°33'0 0.0
2017-Sep-17 12:30N 40°57' E 024°33'0 0.0
2017-Sep-17 12:00N 40°57' E 024°33'0 0.0
2017-Sep-17 11:30N 40°57' E 024°33'0 0.0
2017-Sep-17 11:00N 40°57' E 024°33'0 0.0
2017-Sep-17 10:30N 40°57' E 024°33'0 0.0
2017-Sep-17 10:00N 40°57' E 024°33'0 0.0
2017-Sep-17 09:30N 40°57' E 024°33'0 0.0
2017-Sep-17 09:00N 40°57' E 024°33'0 0.0
2017-Sep-17 08:30N 40°57' E 024°33'0 0.0
2017-Sep-17 08:00N 40°57' E 024°33'0 0.0
2017-Sep-17 07:30N 40°57' E 024°33'0 0.0
2017-Sep-17 07:00N 40°57' E 024°33'0 0.0
2017-Sep-17 06:30N 40°57' E 024°33'0 0.0
2017-Sep-17 06:00N 40°57' E 024°33'0 0.0
2017-Sep-17 05:30N 40°57' E 024°33'0 0.0
2017-Sep-17 05:00N 40°57' E 024°33'0 0.0
2017-Sep-17 04:30N 40°57' E 024°33'0 0.0
2017-Sep-17 04:00N 40°57' E 024°33'0 0.0
2017-Sep-17 03:30N 40°57' E 024°33'0 0.0
2017-Sep-17 03:00N 40°57' E 024°33'0 0.0
2017-Sep-17 02:30N 40°57' E 024°33'0 0.0
2017-Sep-17 02:00N 40°57' E 024°33'0 0.0
2017-Sep-17 01:30N 40°57' E 024°33'0 0.0
2017-Sep-17 01:00N 40°57' E 024°33'0 0.0
2017-Sep-17 00:30N 40°57' E 024°33'0 0.0
2017-Sep-17 00:00N 40°57' E 024°33'0 0.0
2017-Sep-16 23:30N 40°57' E 024°33'0 0.0
2017-Sep-16 23:00N 40°57' E 024°33'0 0.0
2017-Sep-16 22:30N 40°57' E 024°33'0 0.0
2017-Sep-16 22:00N 40°57' E 024°33'0 0.0
2017-Sep-16 21:30N 40°57' E 024°33'0 0.0
2017-Sep-16 21:00N 40°57' E 024°33'0 0.0
2017-Sep-16 20:30N 40°57' E 024°33'0 0.0
2017-Sep-16 20:00N 40°57' E 024°33'0 0.0
2017-Sep-16 19:30N 40°57' E 024°33'0 0.0
2017-Sep-16 19:00N 40°57' E 024°33'0 0.0
2017-Sep-16 18:30N 40°57' E 024°33'0 0.0
2017-Sep-16 18:00N 40°57' E 024°33'0 0.0
2017-Sep-16 17:30N 40°57' E 024°33'0 0.0
2017-Sep-16 17:00N 40°57' E 024°33'0 0.0
2017-Sep-16 16:30N 40°57' E 024°33'0 0.0
2017-Sep-16 16:00N 40°57' E 024°33'0 0.0
2017-Sep-16 15:30N 40°57' E 024°33'0 0.0
2017-Sep-16 15:00N 40°57' E 024°33'0 0.0
2017-Sep-16 14:30N 40°57' E 024°33'0 0.0
2017-Sep-16 14:00N 40°57' E 024°33'0 0.0
2017-Sep-16 13:30N 40°57' E 024°33'0 0.0
2017-Sep-16 13:00N 40°57' E 024°33'0 0.0
2017-Sep-16 12:30N 40°57' E 024°33'0 0.0
2017-Sep-16 12:00N 40°57' E 024°33'0 0.0
2017-Sep-16 11:30N 40°57' E 024°33'0 0.0
2017-Sep-16 11:00N 40°57' E 024°33'0 0.0
2017-Sep-16 10:30N 40°57' E 024°33'0 0.0
2017-Sep-16 10:00N 40°57' E 024°33'0 0.0
2017-Sep-16 09:30N 40°57' E 024°33'0 0.0
2017-Sep-16 09:00N 40°57' E 024°33'0 0.0
2017-Sep-16 08:30N 40°57' E 024°33'0 0.0
2017-Sep-16 08:00N 40°57' E 024°33'0 0.0
2017-Sep-16 07:30N 40°57' E 024°33'0 0.0
2017-Sep-16 07:00N 40°57' E 024°33'0 0.0
2017-Sep-16 06:30N 40°57' E 024°33'0 0.0
2017-Sep-16 06:00N 40°57' E 024°33'0 0.0
2017-Sep-16 05:30N 40°57' E 024°33'0 0.0
2017-Sep-16 05:00N 40°57' E 024°33'0 0.0
2017-Sep-16 04:30N 40°57' E 024°33'0 0.0
2017-Sep-16 04:00N 40°57' E 024°33'0 0.0
2017-Sep-16 03:30N 40°57' E 024°33'0 0.0
2017-Sep-16 03:00N 40°57' E 024°33'0 0.0
2017-Sep-16 02:30N 40°57' E 024°33'0 0.0
2017-Sep-16 02:00N 40°57' E 024°33'0 0.0
2017-Sep-16 01:30N 40°57' E 024°33'0 0.0
2017-Sep-16 01:00N 40°57' E 024°33'0 0.0
2017-Sep-16 00:30N 40°57' E 024°33'0 0.0
2017-Sep-16 00:00N 40°57' E 024°33'0 0.0
2017-Sep-15 23:30N 40°57' E 024°33'0 0.0
2017-Sep-15 23:00N 40°57' E 024°33'0 0.0
2017-Sep-15 22:30N 40°57' E 024°33'0 0.0
2017-Sep-15 22:00N 40°57' E 024°33'0 0.0
2017-Sep-15 21:30N 40°57' E 024°33'0 0.0
2017-Sep-15 21:00N 40°57' E 024°33'0 0.0
2017-Sep-15 20:30N 40°57' E 024°33'0 0.0
2017-Sep-15 20:00N 40°57' E 024°33'0 0.0
2017-Sep-15 19:30N 40°57' E 024°33'0 0.0
2017-Sep-15 19:00N 40°57' E 024°33'0 0.0
2017-Sep-15 18:30N 40°57' E 024°33'0 0.0
2017-Sep-15 18:00N 40°57' E 024°33'0 0.0
2017-Sep-15 17:30N 40°57' E 024°33'0 0.0
2017-Sep-15 17:00N 40°57' E 024°33'0 0.0
2017-Sep-15 16:30N 40°57' E 024°33'0 0.0
2017-Sep-15 16:00N 40°57' E 024°33'0 0.0
2017-Sep-15 15:30N 40°57' E 024°33'0 0.0
2017-Sep-15 15:00N 40°57' E 024°33'0 0.0
2017-Sep-15 14:30N 40°57' E 024°33'0 0.0
2017-Sep-15 14:00N 40°57' E 024°33'2 3.9
2017-Sep-15 13:30N 40°55' E 024°32'4 8.3
2017-Sep-15 13:00N 40°51' E 024°31'3 6.4
2017-Sep-15 12:30N 40°48' E 024°30'0 0.9
2017-Sep-15 12:00N 40°48' E 024°30'0 0.4
2017-Sep-15 11:30N 40°48' E 024°30'0 0.2
2017-Sep-15 11:00N 40°48' E 024°30'4 8.1
2017-Sep-15 10:30N 40°44' E 024°28'2 4.4
2017-Sep-15 10:00N 40°42' E 024°27'0 0.0
2017-Sep-15 09:30N 40°42' E 024°27'0 0.0
2017-Sep-15 09:00N 40°42' E 024°27'2 3.3
2017-Sep-15 08:30N 40°44' E 024°27'4 8.4
2017-Sep-15 08:00N 40°47' E 024°30'1 2.7
2017-Sep-15 07:30N 40°49' E 024°30'4 8.2
2017-Sep-15 07:00N 40°53' E 024°31'4 8.3
2017-Sep-15 06:30N 40°57' E 024°32'0 0.9
2017-Sep-15 06:00N 40°57' E 024°33'0 0.0
2017-Sep-15 05:30N 40°57' E 024°33'0 0.0
2017-Sep-15 05:00N 40°57' E 024°33'0 0.0
2017-Sep-15 04:30N 40°57' E 024°33'0 0.0
2017-Sep-15 04:00N 40°57' E 024°33'0 0.0
2017-Sep-15 03:30N 40°57' E 024°33'0 0.0
2017-Sep-15 03:00N 40°57' E 024°33'0 0.0
2017-Sep-15 02:30N 40°57' E 024°33'0 0.0
2017-Sep-15 02:00N 40°57' E 024°33'0 0.0
2017-Sep-15 01:30N 40°57' E 024°33'0 0.0
2017-Sep-15 01:00N 40°57' E 024°33'0 0.0
2017-Sep-15 00:30N 40°57' E 024°33'0 0.0
2017-Sep-15 00:00N 40°57' E 024°33'0 0.0
2017-Sep-14 23:30N 40°57' E 024°33'0 0.0
2017-Sep-14 23:00N 40°57' E 024°33'0 0.0
2017-Sep-14 22:30N 40°57' E 024°33'0 0.0
2017-Sep-14 22:00N 40°57' E 024°33'0 0.0
2017-Sep-14 21:30N 40°57' E 024°33'0 0.0
2017-Sep-14 21:00N 40°57' E 024°33'0 0.0
2017-Sep-14 20:30N 40°57' E 024°33'0 0.0
2017-Sep-14 20:00N 40°57' E 024°33'0 0.0
2017-Sep-14 19:30N 40°57' E 024°33'0 0.0
2017-Sep-14 19:00N 40°57' E 024°33'0 0.0
2017-Sep-14 18:30N 40°57' E 024°33'0 0.0
2017-Sep-14 18:00N 40°57' E 024°33'0 0.0
2017-Sep-14 17:30N 40°57' E 024°33'0 0.0
2017-Sep-14 17:00N 40°57' E 024°33'0 0.0
2017-Sep-14 16:30N 40°57' E 024°33'0 0.0
2017-Sep-14 16:00N 40°57' E 024°33'0 0.0
2017-Sep-14 15:30N 40°57' E 024°33'0 0.0
2017-Sep-14 15:00N 40°57' E 024°33'0 0.0
2017-Sep-14 14:30N 40°57' E 024°33'1 1.8
2017-Sep-14 14:00N 40°56' E 024°32'4 7.5
2017-Sep-14 13:30N 40°53' E 024°32'4 7.9
2017-Sep-14 13:00N 40°49' E 024°31'1 2.2
2017-Sep-14 12:30N 40°48' E 024°30'0 0.6
2017-Sep-14 12:00N 40°48' E 024°30'0 0.1
2017-Sep-14 11:30N 40°48' E 024°30'0 0.5
2017-Sep-14 11:00N 40°48' E 024°30'0 0.2
2017-Sep-14 10:30N 40°48' E 024°30'1 1.4
2017-Sep-14 10:00N 40°49' E 024°30'4 8.1
2017-Sep-14 09:30N 40°53' E 024°31'4 8.1
2017-Sep-14 09:00N 40°56' E 024°32'1 1.6
2017-Sep-14 08:30N 40°57' E 024°33'0 0.0
2017-Sep-14 08:00N 40°57' E 024°33'0 0.1
2017-Sep-14 07:30N 40°57' E 024°33'0 0.0
2017-Sep-14 07:00N 40°57' E 024°33'0 0.0
2017-Sep-14 06:30N 40°57' E 024°33'0 0.0
2017-Sep-14 06:00N 40°57' E 024°33'0 0.0
2017-Sep-14 05:30N 40°57' E 024°33'0 0.0
2017-Sep-14 05:00N 40°57' E 024°33'0 0.0
2017-Sep-14 04:30N 40°57' E 024°33'0 0.0
2017-Sep-14 04:00N 40°57' E 024°33'0 0.0
2017-Sep-14 03:30N 40°57' E 024°33'0 0.0
2017-Sep-14 03:00N 40°57' E 024°33'0 0.0
2017-Sep-14 02:30N 40°57' E 024°33'0 0.0
2017-Sep-14 02:00N 40°57' E 024°33'0 0.0
2017-Sep-14 01:30N 40°57' E 024°33'0 0.0
2017-Sep-14 01:00N 40°57' E 024°33'0 0.0
2017-Sep-14 00:30N 40°57' E 024°33'0 0.0
2017-Sep-14 00:00N 40°57' E 024°33'0 0.0
2017-Sep-13 23:30N 40°57' E 024°33'0 0.0
2017-Sep-13 23:00N 40°57' E 024°33'0 0.0
2017-Sep-13 22:30N 40°57' E 024°33'0 0.0
2017-Sep-13 22:00N 40°57' E 024°33'0 0.0
2017-Sep-13 21:30N 40°57' E 024°33'0 0.0
2017-Sep-13 21:00N 40°57' E 024°33'0 0.0
2017-Sep-13 20:30N 40°57' E 024°33'0 0.0
2017-Sep-13 20:00N 40°57' E 024°33'0 0.0
2017-Sep-13 19:30N 40°57' E 024°33'0 0.0
2017-Sep-13 19:00N 40°57' E 024°33'0 0.0
2017-Sep-13 18:30N 40°57' E 024°33'0 0.0
2017-Sep-13 18:00N 40°57' E 024°33'0 0.0
2017-Sep-13 17:30N 40°57' E 024°33'0 0.0
2017-Sep-13 17:00N 40°57' E 024°33'0 0.0
2017-Sep-13 16:30N 40°57' E 024°33'0 0.0
2017-Sep-13 16:00N 40°57' E 024°33'0 0.0
2017-Sep-13 15:30N 40°57' E 024°33'0 0.0
2017-Sep-13 15:00N 40°57' E 024°33'0 0.0
2017-Sep-13 14:30N 40°57' E 024°33'0 0.0
2017-Sep-13 14:00N 40°57' E 024°33'1 1.4
2017-Sep-13 13:30N 40°57' E 024°32'4 7.9
2017-Sep-13 13:00N 40°53' E 024°32'4 8.4
2017-Sep-13 12:30N 40°49' E 024°30'1 1.6
2017-Sep-13 12:00N 40°48' E 024°30'0 0.5
2017-Sep-13 11:30N 40°48' E 024°30'0 0.3
2017-Sep-13 11:00N 40°48' E 024°30'0 0.4
2017-Sep-13 10:30N 40°48' E 024°30'4 7.2
2017-Sep-13 10:00N 40°52' E 024°31'4 7.8
2017-Sep-13 09:30N 40°55' E 024°32'1 2.3
2017-Sep-13 09:00N 40°56' E 024°33'1 2.0
2017-Sep-13 08:30N 40°57' E 024°33'0 0.0
2017-Sep-13 08:00N 40°57' E 024°33'0 0.0
2017-Sep-13 07:30N 40°57' E 024°33'0 0.0
2017-Sep-13 07:00N 40°57' E 024°33'0 0.0
2017-Sep-13 06:30N 40°57' E 024°33'0 0.0
2017-Sep-13 06:00N 40°57' E 024°33'0 0.0
2017-Sep-13 05:30N 40°57' E 024°33'0 0.0
2017-Sep-13 05:00N 40°57' E 024°33'0 0.0
2017-Sep-13 04:30N 40°57' E 024°33'0 0.0
2017-Sep-13 04:00N 40°57' E 024°33'0 0.0
2017-Sep-13 03:30N 40°57' E 024°33'0 0.0
2017-Sep-13 03:00N 40°57' E 024°33'0 0.0
2017-Sep-13 02:30N 40°57' E 024°33'0 0.0
2017-Sep-13 02:00N 40°57' E 024°33'0 0.0
2017-Sep-13 01:30N 40°57' E 024°33'0 0.0
2017-Sep-13 01:00N 40°57' E 024°33'0 0.0
2017-Sep-13 00:30N 40°57' E 024°33'0 0.0
2017-Sep-13 00:00N 40°57' E 024°33'0 0.0
2017-Sep-12 23:30N 40°57' E 024°33'0 0.0
2017-Sep-12 23:00N 40°57' E 024°33'0 0.0
2017-Sep-12 22:30N 40°57' E 024°33'0 0.0
2017-Sep-12 22:00N 40°57' E 024°33'0 0.0
2017-Sep-12 21:30N 40°57' E 024°33'0 0.0
2017-Sep-12 21:00N 40°57' E 024°33'0 0.0
2017-Sep-12 20:30N 40°57' E 024°33'0 0.0
2017-Sep-12 20:00N 40°57' E 024°33'0 0.0
2017-Sep-12 19:30N 40°57' E 024°33'0 0.0
2017-Sep-12 19:00N 40°57' E 024°33'0 0.0
2017-Sep-12 18:30N 40°57' E 024°33'0 0.0
2017-Sep-12 18:00N 40°57' E 024°33'0 0.0
2017-Sep-12 17:30N 40°57' E 024°33'0 0.0
2017-Sep-12 17:00N 40°57' E 024°33'0 0.0
2017-Sep-12 16:30N 40°57' E 024°33'0 0.0
2017-Sep-12 16:00N 40°57' E 024°33'0 0.0
2017-Sep-12 15:30N 40°57' E 024°33'0 0.0
2017-Sep-12 15:00N 40°57' E 024°33'0 0.6
2017-Sep-12 14:30N 40°57' E 024°32'2 4.4
2017-Sep-12 14:00N 40°55' E 024°32'4 7.6
2017-Sep-12 13:30N 40°51' E 024°31'3 6.1
2017-Sep-12 13:00N 40°48' E 024°31'1 1.2
2017-Sep-12 12:30N 40°48' E 024°30'1 1.0
2017-Sep-12 12:00N 40°48' E 024°29'0 0.4
2017-Sep-12 11:29N 40°48' E 024°29'0 0.0
2017-Sep-12 11:00N 40°48' E 024°29'0 0.0
2017-Sep-12 10:30N 40°48' E 024°29'0 0.0
2017-Sep-12 10:00N 40°48' E 024°29'0 0.0
2017-Sep-12 09:30N 40°48' E 024°29'0 0.0
2017-Sep-12 09:00N 40°48' E 024°29'0 0.0
2017-Sep-12 08:30N 40°48' E 024°29'0 0.0
2017-Sep-12 08:00N 40°48' E 024°29'1 1.5
2017-Sep-12 07:30N 40°48' E 024°30'2 4.1
2017-Sep-12 07:00N 40°50' E 024°31'4 7.9
2017-Sep-12 06:30N 40°54' E 024°32'4 7.4
2017-Sep-12 06:00N 40°57' E 024°33'0 0.1
2017-Sep-12 05:30N 40°57' E 024°33'0 0.0
2017-Sep-12 05:00N 40°57' E 024°33'0 0.0
2017-Sep-12 04:30N 40°57' E 024°33'0 0.0
2017-Sep-12 04:00N 40°57' E 024°33'0 0.0
2017-Sep-12 03:30N 40°57' E 024°33'0 0.0
2017-Sep-12 03:00N 40°57' E 024°33'0 0.0
2017-Sep-12 02:30N 40°57' E 024°33'0 0.0
2017-Sep-12 02:00N 40°57' E 024°33'0 0.0
2017-Sep-12 01:30N 40°57' E 024°33'0 0.0
2017-Sep-12 01:00N 40°57' E 024°33'0 0.0
2017-Sep-12 00:30N 40°57' E 024°33'0 0.0
2017-Sep-12 00:00N 40°57' E 024°33'0 0.0
2017-Sep-11 23:30N 40°57' E 024°33'0 0.0
2017-Sep-11 23:00N 40°57' E 024°33'0 0.0
2017-Sep-11 22:30N 40°57' E 024°33'0 0.0
2017-Sep-11 22:00N 40°57' E 024°33'0 0.0
2017-Sep-11 21:30N 40°57' E 024°33'0 0.0
2017-Sep-11 21:00N 40°57' E 024°33'0 0.0
2017-Sep-11 20:30N 40°57' E 024°33'0 0.0
2017-Sep-11 20:00N 40°57' E 024°33'0 0.0
2017-Sep-11 19:30N 40°57' E 024°33'0 0.0
2017-Sep-11 19:00N 40°57' E 024°33'0 0.0
2017-Sep-11 18:30N 40°57' E 024°33'0 0.0
2017-Sep-11 18:00N 40°57' E 024°33'0 0.0
2017-Sep-11 17:30N 40°57' E 024°33'0 0.0
2017-Sep-11 17:00N 40°57' E 024°33'0 0.0
2017-Sep-11 16:30N 40°57' E 024°33'0 0.0
2017-Sep-11 16:00N 40°57' E 024°33'0 0.0
2017-Sep-11 15:30N 40°57' E 024°33'0 0.0
2017-Sep-11 15:00N 40°57' E 024°33'0 0.0
2017-Sep-11 14:30N 40°57' E 024°33'0 0.0
2017-Sep-11 14:00N 40°57' E 024°33'1 1.9
2017-Sep-11 13:30N 40°56' E 024°32'4 8.4
2017-Sep-11 13:00N 40°52' E 024°31'4 8.5
2017-Sep-11 12:30N 40°48' E 024°30'0 0.5
2017-Sep-11 12:00N 40°48' E 024°30'0 0.3
2017-Sep-11 11:24N 40°48' E 024°30'0 0.0
2017-Sep-11 11:00N 40°48' E 024°30'0 0.2
2017-Sep-11 10:30N 40°48' E 024°30'3 5.8
2017-Sep-11 10:00N 40°51' E 024°31'4 8.0
2017-Sep-11 09:30N 40°55' E 024°32'3 5.3
2017-Sep-11 09:00N 40°57' E 024°33'0 0.0
2017-Sep-11 08:30N 40°57' E 024°33'0 0.0
2017-Sep-11 08:00N 40°57' E 024°33'0 0.0
2017-Sep-11 07:30N 40°57' E 024°33'0 0.0
2017-Sep-11 07:00N 40°57' E 024°33'0 0.0
2017-Sep-11 06:30N 40°57' E 024°33'0 0.0
2017-Sep-11 06:00N 40°57' E 024°33'0 0.0
2017-Sep-11 05:30N 40°57' E 024°33'0 0.0
2017-Sep-11 05:00N 40°57' E 024°33'0 0.0
2017-Sep-11 04:30N 40°57' E 024°33'0 0.0
2017-Sep-11 04:00N 40°57' E 024°33'0 0.0
2017-Sep-11 03:30N 40°57' E 024°33'0 0.0
2017-Sep-11 03:00N 40°57' E 024°33'0 0.0
2017-Sep-11 02:30N 40°57' E 024°33'0 0.0
2017-Sep-11 02:00N 40°57' E 024°33'0 0.0
2017-Sep-11 01:30N 40°57' E 024°33'0 0.0
2017-Sep-11 01:00N 40°57' E 024°33'0 0.0
2017-Sep-11 00:30N 40°57' E 024°33'0 0.0
2017-Sep-11 00:00N 40°57' E 024°33'0 0.0
2017-Sep-10 23:30N 40°57' E 024°33'0 0.0
2017-Sep-10 23:00N 40°57' E 024°33'0 0.0
2017-Sep-10 22:30N 40°57' E 024°33'0 0.0
2017-Sep-10 22:00N 40°57' E 024°33'0 0.0
2017-Sep-10 21:30N 40°57' E 024°33'0 0.0
2017-Sep-10 21:00N 40°57' E 024°33'0 0.0
2017-Sep-10 20:30N 40°57' E 024°33'0 0.0
2017-Sep-10 20:00N 40°57' E 024°33'0 0.0
2017-Sep-10 19:30N 40°57' E 024°33'0 0.0
2017-Sep-10 19:00N 40°57' E 024°33'0 0.0
2017-Sep-10 18:30N 40°57' E 024°33'0 0.0
2017-Sep-10 18:00N 40°57' E 024°33'0 0.0
2017-Sep-10 17:30N 40°57' E 024°33'0 0.0
2017-Sep-10 17:00N 40°57' E 024°33'0 0.0
2017-Sep-10 16:30N 40°57' E 024°33'0 0.0
2017-Sep-10 16:00N 40°57' E 024°33'0 0.0
2017-Sep-10 15:30N 40°57' E 024°33'0 0.0
2017-Sep-10 15:00N 40°57' E 024°33'0 0.0
2017-Sep-10 14:00N 40°57' E 024°33'0 0.0
2017-Sep-10 13:30N 40°57' E 024°33'0 0.0
2017-Sep-10 13:00N 40°57' E 024°33'0 0.0
2017-Sep-10 12:30N 40°57' E 024°33'0 0.0
2017-Sep-10 12:00N 40°57' E 024°33'0 0.0
2017-Sep-10 11:30N 40°57' E 024°33'0 0.0
2017-Sep-10 11:00N 40°57' E 024°33'0 0.0
2017-Sep-10 10:30N 40°57' E 024°33'0 0.0
2017-Sep-10 10:00N 40°57' E 024°33'0 0.0
2017-Sep-10 09:30N 40°57' E 024°33'0 0.0
2017-Sep-10 09:00N 40°57' E 024°33'0 0.0
2017-Sep-10 08:30N 40°57' E 024°33'0 0.0
2017-Sep-10 08:00N 40°57' E 024°33'0 0.0
2017-Sep-10 07:30N 40°57' E 024°33'0 0.0
2017-Sep-10 07:00N 40°57' E 024°33'0 0.0
2017-Sep-10 06:30N 40°57' E 024°33'0 0.0
2017-Sep-10 06:00N 40°57' E 024°33'0 0.0
2017-Sep-10 05:30N 40°57' E 024°33'0 0.0
2017-Sep-10 05:00N 40°57' E 024°33'0 0.0
2017-Sep-10 04:30N 40°57' E 024°33'0 0.0
2017-Sep-10 04:00N 40°57' E 024°33'0 0.0
2017-Sep-10 03:30N 40°57' E 024°33'0 0.0
2017-Sep-10 03:00N 40°57' E 024°33'0 0.0
2017-Sep-10 02:30N 40°57' E 024°33'0 0.0
2017-Sep-10 02:00N 40°57' E 024°33'0 0.0
2017-Sep-10 01:30N 40°57' E 024°33'0 0.0
2017-Sep-10 01:00N 40°57' E 024°33'0 0.0
2017-Sep-10 00:30N 40°57' E 024°33'0 0.0
2017-Sep-10 00:00N 40°57' E 024°33'0 0.0
2017-Sep-09 23:30N 40°57' E 024°33'0 0.0
2017-Sep-09 23:00N 40°57' E 024°33'0 0.0
2017-Sep-09 22:30N 40°57' E 024°33'0 0.0
2017-Sep-09 22:00N 40°57' E 024°33'0 0.0
2017-Sep-09 21:30N 40°57' E 024°33'0 0.0
2017-Sep-09 21:00N 40°57' E 024°33'0 0.0
2017-Sep-09 20:30N 40°57' E 024°33'  
Track history (hours):
 
Tides and Currents Weather Stations Pressure Air Temp Water Temp Dewpoint Dewpoint Depression Visibility Wind Speed Wind Dir Waves Ship Positions

Epsilon

Last reported at 2017-Sep-19 20:30 UTC. Time now 2017-Sep-19 20:28 UTC.
Position N 40°57' E 024°33'.

Length 33 m; draft 2.5 m.

Type: Cargo ship. MMSI: 237019200.

Date/timePositionNaut miles runAvg speedWind from/ knotsBaromVisibWave heightAir tempDewpointWater temp
2017-Sep-19 20:30N 40°57' E 024°33'0 0.0
2017-Sep-19 20:00N 40°57' E 024°33'0 0.0
2017-Sep-19 19:30N 40°57' E 024°33'0 0.0
2017-Sep-19 19:00N 40°57' E 024°33'0 0.0
2017-Sep-19 18:30N 40°57' E 024°33'0 0.0
2017-Sep-19 18:00N 40°57' E 024°33'0 0.0
2017-Sep-19 17:30N 40°57' E 024°33'0 0.0
2017-Sep-19 17:00N 40°57' E 024°33'0 0.0
2017-Sep-19 16:30N 40°57' E 024°33'0 0.0
2017-Sep-19 16:00N 40°57' E 024°33'0 0.0
2017-Sep-19 15:30N 40°57' E 024°33'0 0.0
2017-Sep-19 15:00N 40°57' E 024°33'0 0.0
2017-Sep-19 14:30N 40°57' E 024°33'0 0.0
2017-Sep-19 14:00N 40°57' E 024°33'0 0.6
2017-Sep-19 13:30N 40°57' E 024°33'4 7.4
2017-Sep-19 13:00N 40°53' E 024°32'4 8.0
2017-Sep-19 12:30N 40°49' E 024°31'2 3.2
2017-Sep-19 12:00N 40°48' E 024°30'0 0.0
2017-Sep-19 11:30N 40°48' E 024°30'0 0.0
2017-Sep-19 11:00N 40°48' E 024°30'0 0.0
2017-Sep-19 10:30N 40°48' E 024°30'0 0.0
2017-Sep-19 10:00N 40°48' E 024°30'0 0.2
2017-Sep-19 09:30N 40°48' E 024°30'3 5.1
2017-Sep-19 09:00N 40°50' E 024°30'4 8.1
2017-Sep-19 08:30N 40°54' E 024°31'3 5.9
2017-Sep-19 08:00N 40°57' E 024°33'0 0.0
2017-Sep-19 07:30N 40°57' E 024°33'0 0.0
2017-Sep-19 07:00N 40°57' E 024°33'0 0.0
2017-Sep-19 06:30N 40°57' E 024°33'0 0.0
2017-Sep-19 06:00N 40°57' E 024°33'0 0.0
2017-Sep-19 05:30N 40°57' E 024°33'0 0.0
2017-Sep-19 05:00N 40°57' E 024°33'0 0.0
2017-Sep-19 04:30N 40°57' E 024°33'0 0.0
2017-Sep-19 04:00N 40°57' E 024°33'0 0.0
2017-Sep-19 03:30N 40°57' E 024°33'0 0.0
2017-Sep-19 03:00N 40°57' E 024°33'0 0.0
2017-Sep-19 02:30N 40°57' E 024°33'0 0.0
2017-Sep-19 02:00N 40°57' E 024°33'0 0.0
2017-Sep-19 01:30N 40°57' E 024°33'0 0.0
2017-Sep-19 01:00N 40°57' E 024°33'0 0.0
2017-Sep-19 00:30N 40°57' E 024°33'0 0.0
2017-Sep-19 00:00N 40°57' E 024°33'0 0.0
2017-Sep-18 23:30N 40°57' E 024°33'0 0.0
2017-Sep-18 23:00N 40°57' E 024°33'0 0.0
2017-Sep-18 22:30N 40°57' E 024°33'0 0.0
2017-Sep-18 22:00N 40°57' E 024°33'0 0.0
2017-Sep-18 21:30N 40°57' E 024°33'0 0.0
2017-Sep-18 21:00N 40°57' E 024°33'0 0.0
2017-Sep-18 20:30N 40°57' E 024°33'0 0.0
2017-Sep-18 20:00N 40°57' E 024°33'0 0.0
2017-Sep-18 19:30N 40°57' E 024°33'0 0.0
2017-Sep-18 19:00N 40°57' E 024°33'0 0.0
2017-Sep-18 18:30N 40°57' E 024°33'0 0.0
2017-Sep-18 18:00N 40°57' E 024°33'0 0.0
2017-Sep-18 17:30N 40°57' E 024°33'0 0.0
2017-Sep-18 17:00N 40°57' E 024°33'0 0.0
2017-Sep-18 16:30N 40°57' E 024°33'0 0.0
2017-Sep-18 16:00N 40°57' E 024°33'0 0.0
2017-Sep-18 15:30N 40°57' E 024°33'0 0.0
2017-Sep-18 15:00N 40°57' E 024°33'0 0.0
2017-Sep-18 14:30N 40°57' E 024°33'0 0.1
2017-Sep-18 14:00N 40°57' E 024°33'4 7.6
2017-Sep-18 13:30N 40°53' E 024°32'4 8.1
2017-Sep-18 13:00N 40°49' E 024°31'2 3.4
2017-Sep-18 12:30N 40°48' E 024°30'0 0.0
2017-Sep-18 12:00N 40°48' E 024°30'0 0.0
2017-Sep-18 11:30N 40°48' E 024°30'0 0.0
2017-Sep-18 11:00N 40°48' E 024°30'0 0.2
2017-Sep-18 10:30N 40°48' E 024°30'0 0.0
2017-Sep-18 10:00N 40°48' E 024°30'0 0.0
2017-Sep-18 09:30N 40°48' E 024°30'0 0.0
2017-Sep-18 09:00N 40°48' E 024°30'2 4.4
2017-Sep-18 08:30N 40°50' E 024°31'4 8.4
2017-Sep-18 08:00N 40°54' E 024°32'3 6.5
2017-Sep-18 07:30N 40°57' E 024°33'0 0.0
2017-Sep-18 07:00N 40°57' E 024°33'0 0.0
2017-Sep-18 06:30N 40°57' E 024°33'0 0.0
2017-Sep-18 06:00N 40°57' E 024°33'0 0.0
2017-Sep-18 05:30N 40°57' E 024°33'0 0.0
2017-Sep-18 05:00N 40°57' E 024°33'0 0.0
2017-Sep-18 04:30N 40°57' E 024°33'0 0.0
2017-Sep-18 04:00N 40°57' E 024°33'0 0.0
2017-Sep-18 03:30N 40°57' E 024°33'0 0.0
2017-Sep-18 03:00N 40°57' E 024°33'0 0.0
2017-Sep-18 02:30N 40°57' E 024°33'0 0.0
2017-Sep-18 02:00N 40°57' E 024°33'0 0.0
2017-Sep-18 01:30N 40°57' E 024°33'0 0.0
2017-Sep-18 01:00N 40°57' E 024°33'0 0.0
2017-Sep-18 00:30N 40°57' E 024°33'0 0.0
2017-Sep-18 00:00N 40°57' E 024°33'0 0.0
2017-Sep-17 23:30N 40°57' E 024°33'0 0.0
2017-Sep-17 23:00N 40°57' E 024°33'0 0.0
2017-Sep-17 22:30N 40°57' E 024°33'0 0.0
2017-Sep-17 22:00N 40°57' E 024°33'0 0.0
2017-Sep-17 21:30N 40°57' E 024°33'0 0.0
2017-Sep-17 21:00N 40°57' E 024°33'0 0.0
2017-Sep-17 20:30N 40°57' E 024°33'0 0.0
2017-Sep-17 20:00N 40°57' E 024°33'0 0.0
2017-Sep-17 19:30N 40°57' E 024°33'0 0.0
2017-Sep-17 19:00N 40°57' E 024°33'0 0.0
2017-Sep-17 18:30N 40°57' E 024°33'0 0.0
2017-Sep-17 18:00N 40°57' E 024°33'0 0.0
2017-Sep-17 17:30N 40°57' E 024°33'0 0.0
2017-Sep-17 17:00N 40°57' E 024°33'0 0.0
2017-Sep-17 16:30N 40°57' E 024°33'0 0.0
2017-Sep-17 16:00N 40°57' E 024°33'0 0.0
2017-Sep-17 15:30N 40°57' E 024°33'0 0.0
2017-Sep-17 15:00N 40°57' E 024°33'0 0.0
2017-Sep-17 14:30N 40°57' E 024°33'0 0.0
2017-Sep-17 14:00N 40°57' E 024°33'0 0.0
2017-Sep-17 13:30N 40°57' E 024°33'0 0.0
2017-Sep-17 13:00N 40°57' E 024°33'0 0.0
2017-Sep-17 12:30N 40°57' E 024°33'0 0.0
2017-Sep-17 12:00N 40°57' E 024°33'0 0.0
2017-Sep-17 11:30N 40°57' E 024°33'0 0.0
2017-Sep-17 11:00N 40°57' E 024°33'0 0.0
2017-Sep-17 10:30N 40°57' E 024°33'0 0.0
2017-Sep-17 10:00N 40°57' E 024°33'0 0.0
2017-Sep-17 09:30N 40°57' E 024°33'0 0.0
2017-Sep-17 09:00N 40°57' E 024°33'0 0.0
2017-Sep-17 08:30N 40°57' E 024°33'0 0.0
2017-Sep-17 08:00N 40°57' E 024°33'0 0.0
2017-Sep-17 07:30N 40°57' E 024°33'0 0.0
2017-Sep-17 07:00N 40°57' E 024°33'0 0.0
2017-Sep-17 06:30N 40°57' E 024°33'0 0.0
2017-Sep-17 06:00N 40°57' E 024°33'0 0.0
2017-Sep-17 05:30N 40°57' E 024°33'0 0.0
2017-Sep-17 05:00N 40°57' E 024°33'0 0.0
2017-Sep-17 04:30N 40°57' E 024°33'0 0.0
2017-Sep-17 04:00N 40°57' E 024°33'0 0.0
2017-Sep-17 03:30N 40°57' E 024°33'0 0.0
2017-Sep-17 03:00N 40°57' E 024°33'0 0.0
2017-Sep-17 02:30N 40°57' E 024°33'0 0.0
2017-Sep-17 02:00N 40°57' E 024°33'0 0.0
2017-Sep-17 01:30N 40°57' E 024°33'0 0.0
2017-Sep-17 01:00N 40°57' E 024°33'0 0.0
2017-Sep-17 00:30N 40°57' E 024°33'0 0.0
2017-Sep-17 00:00N 40°57' E 024°33'0 0.0
2017-Sep-16 23:30N 40°57' E 024°33'0 0.0
2017-Sep-16 23:00N 40°57' E 024°33'0 0.0
2017-Sep-16 22:30N 40°57' E 024°33'0 0.0
2017-Sep-16 22:00N 40°57' E 024°33'0 0.0
2017-Sep-16 21:30N 40°57' E 024°33'0 0.0
2017-Sep-16 21:00N 40°57' E 024°33'0 0.0
2017-Sep-16 20:30N 40°57' E 024°33'0 0.0
2017-Sep-16 20:00N 40°57' E 024°33'0 0.0
2017-Sep-16 19:30N 40°57' E 024°33'0 0.0
2017-Sep-16 19:00N 40°57' E 024°33'0 0.0
2017-Sep-16 18:30N 40°57' E 024°33'0 0.0
2017-Sep-16 18:00N 40°57' E 024°33'0 0.0
2017-Sep-16 17:30N 40°57' E 024°33'0 0.0
2017-Sep-16 17:00N 40°57' E 024°33'0 0.0
2017-Sep-16 16:30N 40°57' E 024°33'0 0.0
2017-Sep-16 16:00N 40°57' E 024°33'0 0.0
2017-Sep-16 15:30N 40°57' E 024°33'0 0.0
2017-Sep-16 15:00N 40°57' E 024°33'0 0.0
2017-Sep-16 14:30N 40°57' E 024°33'0 0.0
2017-Sep-16 14:00N 40°57' E 024°33'0 0.0
2017-Sep-16 13:30N 40°57' E 024°33'0 0.0
2017-Sep-16 13:00N 40°57' E 024°33'0 0.0
2017-Sep-16 12:30N 40°57' E 024°33'0 0.0
2017-Sep-16 12:00N 40°57' E 024°33'0 0.0
2017-Sep-16 11:30N 40°57' E 024°33'0 0.0
2017-Sep-16 11:00N 40°57' E 024°33'0 0.0
2017-Sep-16 10:30N 40°57' E 024°33'0 0.0
2017-Sep-16 10:00N 40°57' E 024°33'0 0.0
2017-Sep-16 09:30N 40°57' E 024°33'0 0.0
2017-Sep-16 09:00N 40°57' E 024°33'0 0.0
2017-Sep-16 08:30N 40°57' E 024°33'0 0.0
2017-Sep-16 08:00N 40°57' E 024°33'0 0.0
2017-Sep-16 07:30N 40°57' E 024°33'0 0.0
2017-Sep-16 07:00N 40°57' E 024°33'0 0.0
2017-Sep-16 06:30N 40°57' E 024°33'0 0.0
2017-Sep-16 06:00N 40°57' E 024°33'0 0.0
2017-Sep-16 05:30N 40°57' E 024°33'0 0.0
2017-Sep-16 05:00N 40°57' E 024°33'0 0.0
2017-Sep-16 04:30N 40°57' E 024°33'0 0.0
2017-Sep-16 04:00N 40°57' E 024°33'0 0.0
2017-Sep-16 03:30N 40°57' E 024°33'0 0.0
2017-Sep-16 03:00N 40°57' E 024°33'0 0.0
2017-Sep-16 02:30N 40°57' E 024°33'0 0.0
2017-Sep-16 02:00N 40°57' E 024°33'0 0.0
2017-Sep-16 01:30N 40°57' E 024°33'0 0.0
2017-Sep-16 01:00N 40°57' E 024°33'0 0.0
2017-Sep-16 00:30N 40°57' E 024°33'0 0.0
2017-Sep-16 00:00N 40°57' E 024°33'0 0.0
2017-Sep-15 23:30N 40°57' E 024°33'0 0.0
2017-Sep-15 23:00N 40°57' E 024°33'0 0.0
2017-Sep-15 22:30N 40°57' E 024°33'0 0.0
2017-Sep-15 22:00N 40°57' E 024°33'0 0.0
2017-Sep-15 21:30N 40°57' E 024°33'0 0.0
2017-Sep-15 21:00N 40°57' E 024°33'0 0.0
2017-Sep-15 20:30N 40°57' E 024°33'0 0.0
2017-Sep-15 20:00N 40°57' E 024°33'0 0.0
2017-Sep-15 19:30N 40°57' E 024°33'0 0.0
2017-Sep-15 19:00N 40°57' E 024°33'0 0.0
2017-Sep-15 18:30N 40°57' E 024°33'0 0.0
2017-Sep-15 18:00N 40°57' E 024°33'0 0.0
2017-Sep-15 17:30N 40°57' E 024°33'0 0.0
2017-Sep-15 17:00N 40°57' E 024°33'0 0.0
2017-Sep-15 16:30N 40°57' E 024°33'0 0.0
2017-Sep-15 16:00N 40°57' E 024°33'0 0.0
2017-Sep-15 15:30N 40°57' E 024°33'0 0.0
2017-Sep-15 15:00N 40°57' E 024°33'0 0.0
2017-Sep-15 14:30N 40°57' E 024°33'0 0.0
2017-Sep-15 14:00N 40°57' E 024°33'2 3.9
2017-Sep-15 13:30N 40°55' E 024°32'4 8.3
2017-Sep-15 13:00N 40°51' E 024°31'3 6.4
2017-Sep-15 12:30N 40°48' E 024°30'0 0.9
2017-Sep-15 12:00N 40°48' E 024°30'0 0.4
2017-Sep-15 11:30N 40°48' E 024°30'0 0.2
2017-Sep-15 11:00N 40°48' E 024°30'4 8.1
2017-Sep-15 10:30N 40°44' E 024°28'2 4.4
2017-Sep-15 10:00N 40°42' E 024°27'0 0.0
2017-Sep-15 09:30N 40°42' E 024°27'0 0.0
2017-Sep-15 09:00N 40°42' E 024°27'2 3.3
2017-Sep-15 08:30N 40°44' E 024°27'4 8.4
2017-Sep-15 08:00N 40°47' E 024°30'1 2.7
2017-Sep-15 07:30N 40°49' E 024°30'4 8.2
2017-Sep-15 07:00N 40°53' E 024°31'4 8.3
2017-Sep-15 06:30N 40°57' E 024°32'0 0.9
2017-Sep-15 06:00N 40°57' E 024°33'0 0.0
2017-Sep-15 05:30N 40°57' E 024°33'0 0.0
2017-Sep-15 05:00N 40°57' E 024°33'0 0.0
2017-Sep-15 04:30N 40°57' E 024°33'0 0.0
2017-Sep-15 04:00N 40°57' E 024°33'0 0.0
2017-Sep-15 03:30N 40°57' E 024°33'0 0.0
2017-Sep-15 03:00N 40°57' E 024°33'0 0.0
2017-Sep-15 02:30N 40°57' E 024°33'0 0.0
2017-Sep-15 02:00N 40°57' E 024°33'0 0.0
2017-Sep-15 01:30N 40°57' E 024°33'0 0.0
2017-Sep-15 01:00N 40°57' E 024°33'0 0.0
2017-Sep-15 00:30N 40°57' E 024°33'0 0.0
2017-Sep-15 00:00N 40°57' E 024°33'0 0.0
2017-Sep-14 23:30N 40°57' E 024°33'0 0.0
2017-Sep-14 23:00N 40°57' E 024°33'0 0.0
2017-Sep-14 22:30N 40°57' E 024°33'0 0.0
2017-Sep-14 22:00N 40°57' E 024°33'0 0.0
2017-Sep-14 21:30N 40°57' E 024°33'0 0.0
2017-Sep-14 21:00N 40°57' E 024°33'0 0.0
2017-Sep-14 20:30N 40°57' E 024°33'0 0.0
2017-Sep-14 20:00N 40°57' E 024°33'0 0.0
2017-Sep-14 19:30N 40°57' E 024°33'0 0.0
2017-Sep-14 19:00N 40°57' E 024°33'0 0.0
2017-Sep-14 18:30N 40°57' E 024°33'0 0.0
2017-Sep-14 18:00N 40°57' E 024°33'0 0.0
2017-Sep-14 17:30N 40°57' E 024°33'0 0.0
2017-Sep-14 17:00N 40°57' E 024°33'0 0.0
2017-Sep-14 16:30N 40°57' E 024°33'0 0.0
2017-Sep-14 16:00N 40°57' E 024°33'0 0.0
2017-Sep-14 15:30N 40°57' E 024°33'0 0.0
2017-Sep-14 15:00N 40°57' E 024°33'0 0.0
2017-Sep-14 14:30N 40°57' E 024°33'1 1.8
2017-Sep-14 14:00N 40°56' E 024°32'4 7.5
2017-Sep-14 13:30N 40°53' E 024°32'4 7.9
2017-Sep-14 13:00N 40°49' E 024°31'1 2.2
2017-Sep-14 12:30N 40°48' E 024°30'0 0.6
2017-Sep-14 12:00N 40°48' E 024°30'0 0.1
2017-Sep-14 11:30N 40°48' E 024°30'0 0.5
2017-Sep-14 11:00N 40°48' E 024°30'0 0.2
2017-Sep-14 10:30N 40°48' E 024°30'1 1.4
2017-Sep-14 10:00N 40°49' E 024°30'4 8.1
2017-Sep-14 09:30N 40°53' E 024°31'4 8.1
2017-Sep-14 09:00N 40°56' E 024°32'1 1.6
2017-Sep-14 08:30N 40°57' E 024°33'0 0.0
2017-Sep-14 08:00N 40°57' E 024°33'0 0.1
2017-Sep-14 07:30N 40°57' E 024°33'0 0.0
2017-Sep-14 07:00N 40°57' E 024°33'0 0.0
2017-Sep-14 06:30N 40°57' E 024°33'0 0.0
2017-Sep-14 06:00N 40°57' E 024°33'0 0.0
2017-Sep-14 05:30N 40°57' E 024°33'0 0.0
2017-Sep-14 05:00N 40°57' E 024°33'0 0.0
2017-Sep-14 04:30N 40°57' E 024°33'0 0.0
2017-Sep-14 04:00N 40°57' E 024°33'0 0.0
2017-Sep-14 03:30N 40°57' E 024°33'0 0.0
2017-Sep-14 03:00N 40°57' E 024°33'0 0.0
2017-Sep-14 02:30N 40°57' E 024°33'0 0.0
2017-Sep-14 02:00N 40°57' E 024°33'0 0.0
2017-Sep-14 01:30N 40°57' E 024°33'0 0.0
2017-Sep-14 01:00N 40°57' E 024°33'0 0.0
2017-Sep-14 00:30N 40°57' E 024°33'0 0.0
2017-Sep-14 00:00N 40°57' E 024°33'0 0.0
2017-Sep-13 23:30N 40°57' E 024°33'0 0.0
2017-Sep-13 23:00N 40°57' E 024°33'0 0.0
2017-Sep-13 22:30N 40°57' E 024°33'0 0.0
2017-Sep-13 22:00N 40°57' E 024°33'0 0.0
2017-Sep-13 21:30N 40°57' E 024°33'0 0.0
2017-Sep-13 21:00N 40°57' E 024°33'0 0.0
2017-Sep-13 20:30N 40°57' E 024°33'0 0.0
2017-Sep-13 20:00N 40°57' E 024°33'0 0.0
2017-Sep-13 19:30N 40°57' E 024°33'0 0.0
2017-Sep-13 19:00N 40°57' E 024°33'0 0.0
2017-Sep-13 18:30N 40°57' E 024°33'0 0.0
2017-Sep-13 18:00N 40°57' E 024°33'0 0.0
2017-Sep-13 17:30N 40°57' E 024°33'0 0.0
2017-Sep-13 17:00N 40°57' E 024°33'0 0.0
2017-Sep-13 16:30N 40°57' E 024°33'0 0.0
2017-Sep-13 16:00N 40°57' E 024°33'0 0.0
2017-Sep-13 15:30N 40°57' E 024°33'0 0.0
2017-Sep-13 15:00N 40°57' E 024°33'0 0.0
2017-Sep-13 14:30N 40°57' E 024°33'0 0.0
2017-Sep-13 14:00N 40°57' E 024°33'1 1.4
2017-Sep-13 13:30N 40°57' E 024°32'4 7.9
2017-Sep-13 13:00N 40°53' E 024°32'4 8.4
2017-Sep-13 12:30N 40°49' E 024°30'1 1.6
2017-Sep-13 12:00N 40°48' E 024°30'0 0.5
2017-Sep-13 11:30N 40°48' E 024°30'0 0.3
2017-Sep-13 11:00N 40°48' E 024°30'0 0.4
2017-Sep-13 10:30N 40°48' E 024°30'4 7.2
2017-Sep-13 10:00N 40°52' E 024°31'4 7.8
2017-Sep-13 09:30N 40°55' E 024°32'1 2.3
2017-Sep-13 09:00N 40°56' E 024°33'1 2.0
2017-Sep-13 08:30N 40°57' E 024°33'0 0.0
2017-Sep-13 08:00N 40°57' E 024°33'0 0.0
2017-Sep-13 07:30N 40°57' E 024°33'0 0.0
2017-Sep-13 07:00N 40°57' E 024°33'0 0.0
2017-Sep-13 06:30N 40°57' E 024°33'0 0.0
2017-Sep-13 06:00N 40°57' E 024°33'0 0.0
2017-Sep-13 05:30N 40°57' E 024°33'0 0.0
2017-Sep-13 05:00N 40°57' E 024°33'0 0.0
2017-Sep-13 04:30N 40°57' E 024°33'0 0.0
2017-Sep-13 04:00N 40°57' E 024°33'0 0.0
2017-Sep-13 03:30N 40°57' E 024°33'0 0.0
2017-Sep-13 03:00N 40°57' E 024°33'0 0.0
2017-Sep-13 02:30N 40°57' E 024°33'0 0.0
2017-Sep-13 02:00N 40°57' E 024°33'0 0.0
2017-Sep-13 01:30N 40°57' E 024°33'0 0.0
2017-Sep-13 01:00N 40°57' E 024°33'0 0.0
2017-Sep-13 00:30N 40°57' E 024°33'0 0.0
2017-Sep-13 00:00N 40°57' E 024°33'0 0.0
2017-Sep-12 23:30N 40°57' E 024°33'0 0.0
2017-Sep-12 23:00N 40°57' E 024°33'0 0.0
2017-Sep-12 22:30N 40°57' E 024°33'0 0.0
2017-Sep-12 22:00N 40°57' E 024°33'0 0.0
2017-Sep-12 21:30N 40°57' E 024°33'0 0.0
2017-Sep-12 21:00N 40°57' E 024°33'0 0.0
2017-Sep-12 20:30N 40°57' E 024°33'0 0.0
2017-Sep-12 20:00N 40°57' E 024°33'0 0.0
2017-Sep-12 19:30N 40°57' E 024°33'0 0.0
2017-Sep-12 19:00N 40°57' E 024°33'0 0.0
2017-Sep-12 18:30N 40°57' E 024°33'0 0.0
2017-Sep-12 18:00N 40°57' E 024°33'0 0.0
2017-Sep-12 17:30N 40°57' E 024°33'0 0.0
2017-Sep-12 17:00N 40°57' E 024°33'0 0.0
2017-Sep-12 16:30N 40°57' E 024°33'0 0.0
2017-Sep-12 16:00N 40°57' E 024°33'0 0.0
2017-Sep-12 15:30N 40°57' E 024°33'0 0.0
2017-Sep-12 15:00N 40°57' E 024°33'0 0.6
2017-Sep-12 14:30N 40°57' E 024°32'2 4.4
2017-Sep-12 14:00N 40°55' E 024°32'4 7.6
2017-Sep-12 13:30N 40°51' E 024°31'3 6.1
2017-Sep-12 13:00N 40°48' E 024°31'1 1.2
2017-Sep-12 12:30N 40°48' E 024°30'1 1.0
2017-Sep-12 12:00N 40°48' E 024°29'0 0.4
2017-Sep-12 11:29N 40°48' E 024°29'0 0.0
2017-Sep-12 11:00N 40°48' E 024°29'0 0.0
2017-Sep-12 10:30N 40°48' E 024°29'0 0.0
2017-Sep-12 10:00N 40°48' E 024°29'0 0.0
2017-Sep-12 09:30N 40°48' E 024°29'0 0.0
2017-Sep-12 09:00N 40°48' E 024°29'0 0.0
2017-Sep-12 08:30N 40°48' E 024°29'0 0.0
2017-Sep-12 08:00N 40°48' E 024°29'1 1.5
2017-Sep-12 07:30N 40°48' E 024°30'2 4.1
2017-Sep-12 07:00N 40°50' E 024°31'4 7.9
2017-Sep-12 06:30N 40°54' E 024°32'4 7.4
2017-Sep-12 06:00N 40°57' E 024°33'0 0.1
2017-Sep-12 05:30N 40°57' E 024°33'0 0.0
2017-Sep-12 05:00N 40°57' E 024°33'0 0.0
2017-Sep-12 04:30N 40°57' E 024°33'0 0.0
2017-Sep-12 04:00N 40°57' E 024°33'0 0.0
2017-Sep-12 03:30N 40°57' E 024°33'0 0.0
2017-Sep-12 03:00N 40°57' E 024°33'0 0.0
2017-Sep-12 02:30N 40°57' E 024°33'0 0.0
2017-Sep-12 02:00N 40°57' E 024°33'0 0.0
2017-Sep-12 01:30N 40°57' E 024°33'0 0.0
2017-Sep-12 01:00N 40°57' E 024°33'0 0.0
2017-Sep-12 00:30N 40°57' E 024°33'0 0.0
2017-Sep-12 00:00N 40°57' E 024°33'0 0.0
2017-Sep-11 23:30N 40°57' E 024°33'0 0.0
2017-Sep-11 23:00N 40°57' E 024°33'0 0.0
2017-Sep-11 22:30N 40°57' E 024°33'0 0.0
2017-Sep-11 22:00N 40°57' E 024°33'0 0.0
2017-Sep-11 21:30N 40°57' E 024°33'0 0.0
2017-Sep-11 21:00N 40°57' E 024°33'0 0.0
2017-Sep-11 20:30N 40°57' E 024°33'0 0.0
2017-Sep-11 20:00N 40°57' E 024°33'0 0.0
2017-Sep-11 19:30N 40°57' E 024°33'0 0.0
2017-Sep-11 19:00N 40°57' E 024°33'0 0.0
2017-Sep-11 18:30N 40°57' E 024°33'0 0.0
2017-Sep-11 18:00N 40°57' E 024°33'0 0.0
2017-Sep-11 17:30N 40°57' E 024°33'0 0.0
2017-Sep-11 17:00N 40°57' E 024°33'0 0.0
2017-Sep-11 16:30N 40°57' E 024°33'0 0.0
2017-Sep-11 16:00N 40°57' E 024°33'0 0.0
2017-Sep-11 15:30N 40°57' E 024°33'0 0.0
2017-Sep-11 15:00N 40°57' E 024°33'0 0.0
2017-Sep-11 14:30N 40°57' E 024°33'0 0.0
2017-Sep-11 14:00N 40°57' E 024°33'1 1.9
2017-Sep-11 13:30N 40°56' E 024°32'4 8.4
2017-Sep-11 13:00N 40°52' E 024°31'4 8.5
2017-Sep-11 12:30N 40°48' E 024°30'0 0.5
2017-Sep-11 12:00N 40°48' E 024°30'0 0.3
2017-Sep-11 11:24N 40°48' E 024°30'0 0.0
2017-Sep-11 11:00N 40°48' E 024°30'0 0.2
2017-Sep-11 10:30N 40°48' E 024°30'3 5.8
2017-Sep-11 10:00N 40°51' E 024°31'4 8.0
2017-Sep-11 09:30N 40°55' E 024°32'3 5.3
2017-Sep-11 09:00N 40°57' E 024°33'0 0.0
2017-Sep-11 08:30N 40°57' E 024°33'0 0.0
2017-Sep-11 08:00N 40°57' E 024°33'0 0.0
2017-Sep-11 07:30N 40°57' E 024°33'0 0.0
2017-Sep-11 07:00N 40°57' E 024°33'0 0.0
2017-Sep-11 06:30N 40°57' E 024°33'0 0.0
2017-Sep-11 06:00N 40°57' E 024°33'0 0.0
2017-Sep-11 05:30N 40°57' E 024°33'0 0.0
2017-Sep-11 05:00N 40°57' E 024°33'0 0.0
2017-Sep-11 04:30N 40°57' E 024°33'0 0.0
2017-Sep-11 04:00N 40°57' E 024°33'0 0.0
2017-Sep-11 03:30N 40°57' E 024°33'0 0.0
2017-Sep-11 03:00N 40°57' E 024°33'0 0.0
2017-Sep-11 02:30N 40°57' E 024°33'0 0.0
2017-Sep-11 02:00N 40°57' E 024°33'0 0.0
2017-Sep-11 01:30N 40°57' E 024°33'0 0.0
2017-Sep-11 01:00N 40°57' E 024°33'0 0.0
2017-Sep-11 00:30N 40°57' E 024°33'0 0.0
2017-Sep-11 00:00N 40°57' E 024°33'0 0.0
2017-Sep-10 23:30N 40°57' E 024°33'0 0.0
2017-Sep-10 23:00N 40°57' E 024°33'0 0.0
2017-Sep-10 22:30N 40°57' E 024°33'0 0.0
2017-Sep-10 22:00N 40°57' E 024°33'0 0.0
2017-Sep-10 21:30N 40°57' E 024°33'0 0.0
2017-Sep-10 21:00N 40°57' E 024°33'0 0.0
2017-Sep-10 20:30N 40°57' E 024°33'0 0.0
2017-Sep-10 20:00N 40°57' E 024°33'0 0.0
2017-Sep-10 19:30N 40°57' E 024°33'0 0.0
2017-Sep-10 19:00N 40°57' E 024°33'0 0.0
2017-Sep-10 18:30N 40°57' E 024°33'0 0.0
2017-Sep-10 18:00N 40°57' E 024°33'0 0.0
2017-Sep-10 17:30N 40°57' E 024°33'0 0.0
2017-Sep-10 17:00N 40°57' E 024°33'0 0.0
2017-Sep-10 16:30N 40°57' E 024°33'0 0.0
2017-Sep-10 16:00N 40°57' E 024°33'0 0.0
2017-Sep-10 15:30N 40°57' E 024°33'0 0.0
2017-Sep-10 15:00N 40°57' E 024°33'0 0.0
2017-Sep-10 14:00N 40°57' E 024°33'0 0.0
2017-Sep-10 13:30N 40°57' E 024°33'0 0.0
2017-Sep-10 13:00N 40°57' E 024°33'0 0.0
2017-Sep-10 12:30N 40°57' E 024°33'0 0.0
2017-Sep-10 12:00N 40°57' E 024°33'0 0.0
2017-Sep-10 11:30N 40°57' E 024°33'0 0.0
2017-Sep-10 11:00N 40°57' E 024°33'0 0.0
2017-Sep-10 10:30N 40°57' E 024°33'0 0.0
2017-Sep-10 10:00N 40°57' E 024°33'0 0.0
2017-Sep-10 09:30N 40°57' E 024°33'0 0.0
2017-Sep-10 09:00N 40°57' E 024°33'0 0.0
2017-Sep-10 08:30N 40°57' E 024°33'0 0.0
2017-Sep-10 08:00N 40°57' E 024°33'0 0.0
2017-Sep-10 07:30N 40°57' E 024°33'0 0.0
2017-Sep-10 07:00N 40°57' E 024°33'0 0.0
2017-Sep-10 06:30N 40°57' E 024°33'0 0.0
2017-Sep-10 06:00N 40°57' E 024°33'0 0.0
2017-Sep-10 05:30N 40°57' E 024°33'0 0.0
2017-Sep-10 05:00N 40°57' E 024°33'0 0.0
2017-Sep-10 04:30N 40°57' E 024°33'0 0.0
2017-Sep-10 04:00N 40°57' E 024°33'0 0.0
2017-Sep-10 03:30N 40°57' E 024°33'0 0.0
2017-Sep-10 03:00N 40°57' E 024°33'0 0.0
2017-Sep-10 02:30N 40°57' E 024°33'0 0.0
2017-Sep-10 02:00N 40°57' E 024°33'0 0.0
2017-Sep-10 01:30N 40°57' E 024°33'0 0.0
2017-Sep-10 01:00N 40°57' E 024°33'0 0.0
2017-Sep-10 00:30N 40°57' E 024°33'0 0.0
2017-Sep-10 00:00N 40°57' E 024°33'0 0.0
2017-Sep-09 23:30N 40°57' E 024°33'0 0.0
2017-Sep-09 23:00N 40°57' E 024°33'0 0.0
2017-Sep-09 22:30N 40°57' E 024°33'0 0.0
2017-Sep-09 22:00N 40°57' E 024°33'0 0.0
2017-Sep-09 21:30N 40°57' E 024°33'0 0.0
2017-Sep-09 21:00N 40°57' E 024°33'0 0.0
2017-Sep-09 20:30N 40°57' E 024°33'  

Dump ship's entire track history